sensor_id;sensor_type;location;lat;lon;timestamp;temperature;humidity
30063;DHT22;16889;67.864;24.990;2023-12-28T00:03:45;-14.80;99.90
30063;DHT22;16889;67.864;24.990;2023-12-28T00:08:31;-14.90;99.90
30063;DHT22;16889;67.864;24.990;2023-12-28T00:13:18;-14.90;99.90
30063;DHT22;16889;67.864;24.990;2023-12-28T00:18:04;-15.00;99.90
30063;DHT22;16889;67.864;24.990;2023-12-28T00:22:50;-14.90;99.90
30063;DHT22;16889;67.864;24.990;2023-12-28T00:27:35;-14.90;99.90
30063;DHT22;16889;67.864;24.990;2023-12-28T00:32:23;-15.00;99.90
30063;DHT22;16889;67.864;24.990;2023-12-28T00:37:09;-15.00;99.90
30063;DHT22;16889;67.864;24.990;2023-12-28T00:41:55;-15.00;99.90
30063;DHT22;16889;67.864;24.990;2023-12-28T00:46:40;-15.10;99.90
30063;DHT22;16889;67.864;24.990;2023-12-28T00:51:26;-15.20;99.90
30063;DHT22;16889;67.864;24.990;2023-12-28T00:56:12;-15.30;99.90
30063;DHT22;16889;67.864;24.990;2023-12-28T01:00:58;-15.30;99.90
30063;DHT22;16889;67.864;24.990;2023-12-28T01:05:44;-15.30;99.90
30063;DHT22;16889;67.864;24.990;2023-12-28T01:10:33;-15.30;99.90
30063;DHT22;16889;67.864;24.990;2023-12-28T01:15:19;-15.30;99.90
30063;DHT22;16889;67.864;24.990;2023-12-28T01:20:06;-15.20;99.90
30063;DHT22;16889;67.864;24.990;2023-12-28T01:24:52;-15.30;99.90
30063;DHT22;16889;67.864;24.990;2023-12-28T01:29:38;-15.50;99.90
30063;DHT22;16889;67.864;24.990;2023-12-28T01:34:24;-15.40;99.90
30063;DHT22;16889;67.864;24.990;2023-12-28T01:39:11;-15.60;99.90
30063;DHT22;16889;67.864;24.990;2023-12-28T01:43:58;-15.70;99.90
30063;DHT22;16889;67.864;24.990;2023-12-28T01:48:46;-15.70;99.90
30063;DHT22;16889;67.864;24.990;2023-12-28T01:53:32;-15.70;99.90
30063;DHT22;16889;67.864;24.990;2023-12-28T01:58:19;-16.00;99.90
30063;DHT22;16889;67.864;24.990;2023-12-28T02:03:06;-16.30;99.90
30063;DHT22;16889;67.864;24.990;2023-12-28T02:07:52;-16.30;99.90
30063;DHT22;16889;67.864;24.990;2023-12-28T02:12:39;-16.40;99.90
30063;DHT22;16889;67.864;24.990;2023-12-28T02:22:35;-16.70;99.90
30063;DHT22;16889;67.864;24.990;2023-12-28T02:27:22;-16.60;99.90
30063;DHT22;16889;67.864;24.990;2023-12-28T02:32:09;-16.50;99.90
30063;DHT22;16889;67.864;24.990;2023-12-28T02:36:56;-16.50;99.90
30063;DHT22;16889;67.864;24.990;2023-12-28T02:41:44;-16.80;99.90
30063;DHT22;16889;67.864;24.990;2023-12-28T02:46:31;-16.90;99.90
30063;DHT22;16889;67.864;24.990;2023-12-28T02:51:17;-17.00;99.90
30063;DHT22;16889;67.864;24.990;2023-12-28T02:56:03;-17.00;99.90
30063;DHT22;16889;67.864;24.990;2023-12-28T03:00:50;-16.80;99.90
30063;DHT22;16889;67.864;24.990;2023-12-28T03:05:36;-16.90;99.90
30063;DHT22;16889;67.864;24.990;2023-12-28T03:10:22;-17.00;99.90
30063;DHT22;16889;67.864;24.990;2023-12-28T03:15:08;-17.10;99.90
30063;DHT22;16889;67.864;24.990;2023-12-28T03:19:54;-17.00;99.90
30063;DHT22;16889;67.864;24.990;2023-12-28T03:24:40;-17.00;99.90
30063;DHT22;16889;67.864;24.990;2023-12-28T03:29:27;-17.10;99.90
30063;DHT22;16889;67.864;24.990;2023-12-28T03:34:14;-17.30;99.90
30063;DHT22;16889;67.864;24.990;2023-12-28T03:38:59;-17.50;99.90
30063;DHT22;16889;67.864;24.990;2023-12-28T03:43:46;-17.60;99.90
30063;DHT22;16889;67.864;24.990;2023-12-28T03:48:32;-17.60;99.90
30063;DHT22;16889;67.864;24.990;2023-12-28T03:53:18;-17.50;99.90
30063;DHT22;16889;67.864;24.990;2023-12-28T03:58:04;-17.50;99.90
30063;DHT22;16889;67.864;24.990;2023-12-28T04:02:50;-17.50;99.90
30063;DHT22;16889;67.864;24.990;2023-12-28T04:07:36;-17.70;99.90
30063;DHT22;16889;67.864;24.990;2023-12-28T04:12:22;-18.00;99.90
30063;DHT22;16889;67.864;24.990;2023-12-28T04:17:08;-18.10;99.90
30063;DHT22;16889;67.864;24.990;2023-12-28T04:21:54;-17.80;99.90
30063;DHT22;16889;67.864;24.990;2023-12-28T04:26:41;-17.70;99.90
30063;DHT22;16889;67.864;24.990;2023-12-28T04:31:27;-17.80;99.90
30063;DHT22;16889;67.864;24.990;2023-12-28T04:36:13;-18.30;99.90
30063;DHT22;16889;67.864;24.990;2023-12-28T04:41:00;-18.40;99.90
30063;DHT22;16889;67.864;24.990;2023-12-28T04:45:47;-18.90;99.90
30063;DHT22;16889;67.864;24.990;2023-12-28T04:50:33;-19.10;99.90
30063;DHT22;16889;67.864;24.990;2023-12-28T04:55:19;-18.90;99.90
30063;DHT22;16889;67.864;24.990;2023-12-28T05:00:07;-19.10;99.90
30063;DHT22;16889;67.864;24.990;2023-12-28T05:04:54;-19.10;99.90
30063;DHT22;16889;67.864;24.990;2023-12-28T05:09:39;-18.90;99.90
30063;DHT22;16889;67.864;24.990;2023-12-28T05:14:26;-18.90;99.90
30063;DHT22;16889;67.864;24.990;2023-12-28T05:19:11;-19.10;99.90
30063;DHT22;16889;67.864;24.990;2023-12-28T05:23:57;-19.40;99.90
30063;DHT22;16889;67.864;24.990;2023-12-28T05:28:43;-19.60;99.90
30063;DHT22;16889;67.864;24.990;2023-12-28T05:33:29;-19.70;99.90
30063;DHT22;16889;67.864;24.990;2023-12-28T05:38:15;-19.80;99.90
30063;DHT22;16889;67.864;24.990;2023-12-28T05:43:01;-20.30;99.90
30063;DHT22;16889;67.864;24.990;2023-12-28T05:47:47;-20.30;99.90
30063;DHT22;16889;67.864;24.990;2023-12-28T05:52:34;-20.10;99.90
30063;DHT22;16889;67.864;24.990;2023-12-28T05:57:20;-20.10;99.90
30063;DHT22;16889;67.864;24.990;2023-12-28T06:02:06;-20.00;99.90
30063;DHT22;16889;67.864;24.990;2023-12-28T06:06:52;-20.00;99.90
30063;DHT22;16889;67.864;24.990;2023-12-28T06:11:38;-20.40;99.90
30063;DHT22;16889;67.864;24.990;2023-12-28T06:16:24;-20.80;99.90
30063;DHT22;16889;67.864;24.990;2023-12-28T06:21:11;-21.10;99.90
30063;DHT22;16889;67.864;24.990;2023-12-28T06:25:57;-21.10;99.90
30063;DHT22;16889;67.864;24.990;2023-12-28T06:30:43;-20.90;99.90
30063;DHT22;16889;67.864;24.990;2023-12-28T06:35:29;-21.10;99.90
30063;DHT22;16889;67.864;24.990;2023-12-28T06:40:15;-21.50;99.90
30063;DHT22;16889;67.864;24.990;2023-12-28T06:45:01;-21.30;99.90
30063;DHT22;16889;67.864;24.990;2023-12-28T06:49:47;-21.20;99.90
30063;DHT22;16889;67.864;24.990;2023-12-28T06:54:33;-21.10;99.90
30063;DHT22;16889;67.864;24.990;2023-12-28T06:59:19;-21.20;99.90
30063;DHT22;16889;67.864;24.990;2023-12-28T07:04:05;-21.10;99.90
30063;DHT22;16889;67.864;24.990;2023-12-28T07:08:51;-21.40;99.90
30063;DHT22;16889;67.864;24.990;2023-12-28T07:13:37;-21.70;99.90
30063;DHT22;16889;67.864;24.990;2023-12-28T07:18:23;-22.00;99.90
30063;DHT22;16889;67.864;24.990;2023-12-28T07:23:09;-21.90;99.90
30063;DHT22;16889;67.864;24.990;2023-12-28T07:27:55;-21.60;99.90
30063;DHT22;16889;67.864;24.990;2023-12-28T07:32:41;-21.50;99.90
30063;DHT22;16889;67.864;24.990;2023-12-28T07:37:28;-22.00;99.90
30063;DHT22;16889;67.864;24.990;2023-12-28T07:42:13;-21.80;99.90
30063;DHT22;16889;67.864;24.990;2023-12-28T07:47:01;-21.60;99.90
30063;DHT22;16889;67.864;24.990;2023-12-28T07:51:47;-21.40;99.90
30063;DHT22;16889;67.864;24.990;2023-12-28T07:56:34;-21.40;99.90
30063;DHT22;16889;67.864;24.990;2023-12-28T08:01:21;-21.80;99.90
30063;DHT22;16889;67.864;24.990;2023-12-28T08:06:07;-21.70;99.90
30063;DHT22;16889;67.864;24.990;2023-12-28T08:10:53;-21.60;99.90
30063;DHT22;16889;67.864;24.990;2023-12-28T08:15:39;-21.60;99.90
30063;DHT22;16889;67.864;24.990;2023-12-28T08:20:26;-21.90;99.90
30063;DHT22;16889;67.864;24.990;2023-12-28T08:25:12;-21.90;99.90
30063;DHT22;16889;67.864;24.990;2023-12-28T08:29:59;-21.50;99.90
30063;DHT22;16889;67.864;24.990;2023-12-28T08:34:45;-21.50;99.90
30063;DHT22;16889;67.864;24.990;2023-12-28T08:39:32;-21.20;99.90
30063;DHT22;16889;67.864;24.990;2023-12-28T08:44:18;-21.00;99.90
30063;DHT22;16889;67.864;24.990;2023-12-28T08:49:04;-21.10;99.90
30063;DHT22;16889;67.864;24.990;2023-12-28T08:53:50;-21.40;99.90
30063;DHT22;16889;67.864;24.990;2023-12-28T08:58:36;-21.40;99.90
30063;DHT22;16889;67.864;24.990;2023-12-28T09:03:22;-21.20;99.90
30063;DHT22;16889;67.864;24.990;2023-12-28T09:08:08;-21.00;99.90
30063;DHT22;16889;67.864;24.990;2023-12-28T09:12:54;-20.60;99.90
30063;DHT22;16889;67.864;24.990;2023-12-28T09:17:40;-20.20;99.90
30063;DHT22;16889;67.864;24.990;2023-12-28T09:22:26;-19.90;99.90
30063;DHT22;16889;67.864;24.990;2023-12-28T09:27:11;-19.60;99.90
30063;DHT22;16889;67.864;24.990;2023-12-28T09:31:57;-19.40;99.90
30063;DHT22;16889;67.864;24.990;2023-12-28T09:36:43;-19.30;99.90
30063;DHT22;16889;67.864;24.990;2023-12-28T09:41:34;-19.50;99.90
30063;DHT22;16889;67.864;24.990;2023-12-28T09:46:22;-19.80;99.90
30063;DHT22;16889;67.864;24.990;2023-12-28T09:51:10;-19.80;99.90
30063;DHT22;16889;67.864;24.990;2023-12-28T09:55:57;-19.70;99.90
30063;DHT22;16889;67.864;24.990;2023-12-28T10:00:48;-19.80;99.90
30063;DHT22;16889;67.864;24.990;2023-12-28T10:05:37;-19.50;99.90
30063;DHT22;16889;67.864;24.990;2023-12-28T10:10:23;-19.10;99.90
30063;DHT22;16889;67.864;24.990;2023-12-28T10:15:09;-18.80;99.90
30063;DHT22;16889;67.864;24.990;2023-12-28T10:19:55;-18.70;99.90
30063;DHT22;16889;67.864;24.990;2023-12-28T10:24:48;-18.80;99.90
30063;DHT22;16889;67.864;24.990;2023-12-28T10:29:34;-18.50;99.90
30063;DHT22;16889;67.864;24.990;2023-12-28T10:34:20;-18.30;99.90
30063;DHT22;16889;67.864;24.990;2023-12-28T10:39:09;-18.10;99.90
30063;DHT22;16889;67.864;24.990;2023-12-28T10:44:04;-18.00;99.90
30063;DHT22;16889;67.864;24.990;2023-12-28T10:48:57;-17.90;99.90
30063;DHT22;16889;67.864;24.990;2023-12-28T10:58:52;-18.10;99.90
30063;DHT22;16889;67.864;24.990;2023-12-28T11:03:47;-18.20;99.90
30063;DHT22;16889;67.864;24.990;2023-12-28T11:08:38;-18.40;99.90
30063;DHT22;16889;67.864;24.990;2023-12-28T11:13:30;-18.20;99.90
30063;DHT22;16889;67.864;24.990;2023-12-28T11:18:18;-18.30;99.90
30063;DHT22;16889;67.864;24.990;2023-12-28T11:23:05;-18.00;99.90
30063;DHT22;16889;67.864;24.990;2023-12-28T11:27:52;-18.10;99.90
30063;DHT22;16889;67.864;24.990;2023-12-28T11:32:42;-17.80;99.90
30063;DHT22;16889;67.864;24.990;2023-12-28T11:37:32;-17.80;99.90
30063;DHT22;16889;67.864;24.990;2023-12-28T11:42:22;-17.70;99.90
30063;DHT22;16889;67.864;24.990;2023-12-28T11:47:16;-17.90;99.90
30063;DHT22;16889;67.864;24.990;2023-12-28T11:52:02;-18.10;99.90
30063;DHT22;16889;67.864;24.990;2023-12-28T11:56:51;-18.10;99.90
30063;DHT22;16889;67.864;24.990;2023-12-28T12:01:38;-18.20;99.90
30063;DHT22;16889;67.864;24.990;2023-12-28T12:06:24;-18.10;99.90
30063;DHT22;16889;67.864;24.990;2023-12-28T12:11:10;-18.20;99.90
30063;DHT22;16889;67.864;24.990;2023-12-28T12:15:57;-18.10;99.90
30063;DHT22;16889;67.864;24.990;2023-12-28T12:20:43;-18.00;99.90
30063;DHT22;16889;67.864;24.990;2023-12-28T12:25:30;-17.80;99.90
30063;DHT22;16889;67.864;24.990;2023-12-28T12:30:16;-17.50;99.90
30063;DHT22;16889;67.864;24.990;2023-12-28T12:35:02;-17.30;99.90
30063;DHT22;16889;67.864;24.990;2023-12-28T12:39:48;-17.10;99.90
30063;DHT22;16889;67.864;24.990;2023-12-28T12:44:35;-17.10;99.90
30063;DHT22;16889;67.864;24.990;2023-12-28T12:49:22;-17.10;99.90
30063;DHT22;16889;67.864;24.990;2023-12-28T12:54:08;-17.00;99.90
30063;DHT22;16889;67.864;24.990;2023-12-28T12:58:55;-17.00;99.90
30063;DHT22;16889;67.864;24.990;2023-12-28T13:03:41;-16.90;99.90
30063;DHT22;16889;67.864;24.990;2023-12-28T13:08:27;-17.00;99.90
30063;DHT22;16889;67.864;24.990;2023-12-28T13:13:13;-17.30;99.90
30063;DHT22;16889;67.864;24.990;2023-12-28T13:18:00;-17.50;99.90
30063;DHT22;16889;67.864;24.990;2023-12-28T13:22:45;-17.60;99.90
30063;DHT22;16889;67.864;24.990;2023-12-28T13:27:33;-17.40;99.90
30063;DHT22;16889;67.864;24.990;2023-12-28T13:32:19;-17.10;99.90
30063;DHT22;16889;67.864;24.990;2023-12-28T13:37:05;-17.00;99.90
30063;DHT22;16889;67.864;24.990;2023-12-28T13:41:51;-17.20;99.90
30063;DHT22;16889;67.864;24.990;2023-12-28T13:46:37;-17.00;99.90
30063;DHT22;16889;67.864;24.990;2023-12-28T13:51:23;-16.90;99.90
30063;DHT22;16889;67.864;24.990;2023-12-28T13:56:09;-17.10;99.90
30063;DHT22;16889;67.864;24.990;2023-12-28T14:00:55;-17.20;99.90
30063;DHT22;16889;67.864;24.990;2023-12-28T14:05:41;-17.00;99.90
30063;DHT22;16889;67.864;24.990;2023-12-28T14:10:28;-16.80;99.90
30063;DHT22;16889;67.864;24.990;2023-12-28T14:15:14;-16.80;99.90
30063;DHT22;16889;67.864;24.990;2023-12-28T14:20:03;-16.80;99.90
30063;DHT22;16889;67.864;24.990;2023-12-28T14:24:49;-16.90;99.90
30063;DHT22;16889;67.864;24.990;2023-12-28T14:29:37;-16.80;99.90
30063;DHT22;16889;67.864;24.990;2023-12-28T14:34:24;-16.80;99.90
30063;DHT22;16889;67.864;24.990;2023-12-28T14:39:11;-16.60;99.90
30063;DHT22;16889;67.864;24.990;2023-12-28T14:43:57;-16.50;99.90
30063;DHT22;16889;67.864;24.990;2023-12-28T14:48:43;-16.50;99.90
30063;DHT22;16889;67.864;24.990;2023-12-28T14:53:29;-16.40;99.90
30063;DHT22;16889;67.864;24.990;2023-12-28T14:58:15;-16.20;99.90
30063;DHT22;16889;67.864;24.990;2023-12-28T15:03:02;-16.10;99.90
30063;DHT22;16889;67.864;24.990;2023-12-28T15:07:48;-15.90;99.90
30063;DHT22;16889;67.864;24.990;2023-12-28T15:12:34;-15.90;99.90
30063;DHT22;16889;67.864;24.990;2023-12-28T15:17:21;-15.90;99.90
30063;DHT22;16889;67.864;24.990;2023-12-28T15:22:08;-16.00;99.90
30063;DHT22;16889;67.864;24.990;2023-12-28T15:26:54;-16.00;99.90
30063;DHT22;16889;67.864;24.990;2023-12-28T15:31:39;-16.10;99.90
30063;DHT22;16889;67.864;24.990;2023-12-28T15:36:25;-15.90;99.90
30063;DHT22;16889;67.864;24.990;2023-12-28T15:41:12;-15.70;99.90
30063;DHT22;16889;67.864;24.990;2023-12-28T15:45:58;-15.70;99.90
30063;DHT22;16889;67.864;24.990;2023-12-28T15:50:44;-15.90;99.90
30063;DHT22;16889;67.864;24.990;2023-12-28T15:55:30;-15.60;99.90
30063;DHT22;16889;67.864;24.990;2023-12-28T16:00:16;-15.60;99.90
30063;DHT22;16889;67.864;24.990;2023-12-28T16:05:02;-15.50;99.90
30063;DHT22;16889;67.864;24.990;2023-12-28T16:09:48;-15.60;99.90
30063;DHT22;16889;67.864;24.990;2023-12-28T16:14:35;-15.60;99.90
30063;DHT22;16889;67.864;24.990;2023-12-28T16:19:21;-15.50;99.90
30063;DHT22;16889;67.864;24.990;2023-12-28T16:24:07;-15.50;99.90
30063;DHT22;16889;67.864;24.990;2023-12-28T16:28:53;-15.50;99.90
30063;DHT22;16889;67.864;24.990;2023-12-28T16:33:40;-15.60;99.90
30063;DHT22;16889;67.864;24.990;2023-12-28T16:38:25;-15.60;99.90
30063;DHT22;16889;67.864;24.990;2023-12-28T16:43:12;-15.40;99.90
30063;DHT22;16889;67.864;24.990;2023-12-28T16:47:58;-15.50;99.90
30063;DHT22;16889;67.864;24.990;2023-12-28T16:52:44;-15.60;99.90
30063;DHT22;16889;67.864;24.990;2023-12-28T16:57:30;-15.60;99.90
30063;DHT22;16889;67.864;24.990;2023-12-28T17:02:16;-15.40;99.90
30063;DHT22;16889;67.864;24.990;2023-12-28T17:07:02;-15.40;99.90
30063;DHT22;16889;67.864;24.990;2023-12-28T17:11:56;-15.20;99.90
30063;DHT22;16889;67.864;24.990;2023-12-28T17:16:45;-15.20;99.90
30063;DHT22;16889;67.864;24.990;2023-12-28T17:21:31;-15.40;99.90
30063;DHT22;16889;67.864;24.990;2023-12-28T17:31:12;-15.10;99.90
30063;DHT22;16889;67.864;24.990;2023-12-28T17:35:59;-14.90;99.90
30063;DHT22;16889;67.864;24.990;2023-12-28T17:40:45;-14.90;99.90
30063;DHT22;16889;67.864;24.990;2023-12-28T17:46:23;-14.80;99.90
30063;DHT22;16889;67.864;24.990;2023-12-28T17:50:50;-14.60;99.90
30063;DHT22;16889;67.864;24.990;2023-12-28T17:55:37;-14.80;99.90
30063;DHT22;16889;67.864;24.990;2023-12-28T18:00:23;-14.80;99.90
30063;DHT22;16889;67.864;24.990;2023-12-28T18:05:10;-14.60;99.90
30063;DHT22;16889;67.864;24.990;2023-12-28T18:09:56;-14.60;99.90
30063;DHT22;16889;67.864;24.990;2023-12-28T18:14:42;-14.50;99.90
30063;DHT22;16889;67.864;24.990;2023-12-28T18:19:28;-14.40;99.90
30063;DHT22;16889;67.864;24.990;2023-12-28T18:24:14;-14.50;99.90
30063;DHT22;16889;67.864;24.990;2023-12-28T18:29:00;-14.50;99.90
30063;DHT22;16889;67.864;24.990;2023-12-28T18:33:46;-14.40;99.90
30063;DHT22;16889;67.864;24.990;2023-12-28T18:38:32;-14.30;99.90
30063;DHT22;16889;67.864;24.990;2023-12-28T18:43:18;-14.80;99.90
30063;DHT22;16889;67.864;24.990;2023-12-28T18:48:04;-14.70;99.90
30063;DHT22;16889;67.864;24.990;2023-12-28T18:52:52;-14.40;99.90
30063;DHT22;16889;67.864;24.990;2023-12-28T18:57:38;-14.30;99.90
30063;DHT22;16889;67.864;24.990;2023-12-28T19:02:24;-14.20;99.90
30063;DHT22;16889;67.864;24.990;2023-12-28T19:07:11;-14.30;99.90
30063;DHT22;16889;67.864;24.990;2023-12-28T19:11:57;-14.50;99.90
30063;DHT22;16889;67.864;24.990;2023-12-28T19:16:43;-14.50;99.90
30063;DHT22;16889;67.864;24.990;2023-12-28T19:21:29;-14.20;99.90
30063;DHT22;16889;67.864;24.990;2023-12-28T19:26:15;-14.40;99.90
30063;DHT22;16889;67.864;24.990;2023-12-28T19:31:04;-14.30;99.90
30063;DHT22;16889;67.864;24.990;2023-12-28T19:35:50;-14.50;99.90
30063;DHT22;16889;67.864;24.990;2023-12-28T19:40:36;-14.20;99.90
30063;DHT22;16889;67.864;24.990;2023-12-28T19:45:22;-14.30;99.90
30063;DHT22;16889;67.864;24.990;2023-12-28T19:50:08;-14.10;99.90
30063;DHT22;16889;67.864;24.990;2023-12-28T19:54:54;-13.90;99.90
30063;DHT22;16889;67.864;24.990;2023-12-28T19:59:41;-13.80;99.90
30063;DHT22;16889;67.864;24.990;2023-12-28T20:04:27;-13.70;99.90
30063;DHT22;16889;67.864;24.990;2023-12-28T20:09:13;-13.70;99.90
30063;DHT22;16889;67.864;24.990;2023-12-28T20:14:00;-13.70;99.90
30063;DHT22;16889;67.864;24.990;2023-12-28T20:18:46;-13.70;99.90
30063;DHT22;16889;67.864;24.990;2023-12-28T20:23:32;-13.70;99.90
30063;DHT22;16889;67.864;24.990;2023-12-28T20:28:18;-13.80;99.90
30063;DHT22;16889;67.864;24.990;2023-12-28T20:33:05;-13.60;99.90
30063;DHT22;16889;67.864;24.990;2023-12-28T20:37:51;-13.60;99.90
30063;DHT22;16889;67.864;24.990;2023-12-28T20:42:37;-13.50;99.90
30063;DHT22;16889;67.864;24.990;2023-12-28T20:47:23;-13.50;99.90
30063;DHT22;16889;67.864;24.990;2023-12-28T20:52:09;-13.70;99.90
30063;DHT22;16889;67.864;24.990;2023-12-28T20:56:55;-13.60;99.90
30063;DHT22;16889;67.864;24.990;2023-12-28T21:01:42;-13.60;99.90
30063;DHT22;16889;67.864;24.990;2023-12-28T21:06:28;-13.50;99.90
30063;DHT22;16889;67.864;24.990;2023-12-28T21:11:14;-13.40;99.90
30063;DHT22;16889;67.864;24.990;2023-12-28T21:16:00;-13.30;99.90
30063;DHT22;16889;67.864;24.990;2023-12-28T21:20:46;-13.20;99.90
30063;DHT22;16889;67.864;24.990;2023-12-28T21:25:33;-13.20;99.90
30063;DHT22;16889;67.864;24.990;2023-12-28T21:30:19;-13.10;99.90
30063;DHT22;16889;67.864;24.990;2023-12-28T21:35:05;-13.10;99.90
30063;DHT22;16889;67.864;24.990;2023-12-28T21:39:52;-13.00;99.90
30063;DHT22;16889;67.864;24.990;2023-12-28T21:44:37;-13.00;99.90
30063;DHT22;16889;67.864;24.990;2023-12-28T21:49:23;-13.00;99.90
30063;DHT22;16889;67.864;24.990;2023-12-28T21:54:09;-13.20;99.90
30063;DHT22;16889;67.864;24.990;2023-12-28T21:58:55;-13.30;99.90
30063;DHT22;16889;67.864;24.990;2023-12-28T22:03:41;-13.10;99.90
30063;DHT22;16889;67.864;24.990;2023-12-28T22:08:27;-13.40;99.90
30063;DHT22;16889;67.864;24.990;2023-12-28T22:13:13;-13.30;99.90
30063;DHT22;16889;67.864;24.990;2023-12-28T22:17:59;-13.10;99.90
30063;DHT22;16889;67.864;24.990;2023-12-28T22:22:46;-12.90;99.90
30063;DHT22;16889;67.864;24.990;2023-12-28T22:27:32;-13.00;99.90
30063;DHT22;16889;67.864;24.990;2023-12-28T22:32:18;-13.20;99.90
30063;DHT22;16889;67.864;24.990;2023-12-28T22:37:04;-13.00;99.90
30063;DHT22;16889;67.864;24.990;2023-12-28T22:41:50;-12.90;99.90
30063;DHT22;16889;67.864;24.990;2023-12-28T22:46:37;-12.80;99.90
30063;DHT22;16889;67.864;24.990;2023-12-28T22:51:23;-12.70;99.90
30063;DHT22;16889;67.864;24.990;2023-12-28T22:56:09;-12.90;99.90
30063;DHT22;16889;67.864;24.990;2023-12-28T23:00:55;-12.70;99.90
30063;DHT22;16889;67.864;24.990;2023-12-28T23:05:41;-12.70;99.90
30063;DHT22;16889;67.864;24.990;2023-12-28T23:10:27;-12.60;99.90
30063;DHT22;16889;67.864;24.990;2023-12-28T23:15:14;-12.70;99.90
30063;DHT22;16889;67.864;24.990;2023-12-28T23:20:00;-12.70;99.90
30063;DHT22;16889;67.864;24.990;2023-12-28T23:24:46;-12.60;99.90
30063;DHT22;16889;67.864;24.990;2023-12-28T23:29:32;-12.60;99.90
30063;DHT22;16889;67.864;24.990;2023-12-28T23:34:18;-12.60;99.90
30063;DHT22;16889;67.864;24.990;2023-12-28T23:39:04;-12.70;99.90
30063;DHT22;16889;67.864;24.990;2023-12-28T23:43:52;-12.50;99.90
30063;DHT22;16889;67.864;24.990;2023-12-28T23:48:38;-12.40;99.90
30063;DHT22;16889;67.864;24.990;2023-12-28T23:53:24;-12.30;99.90
30063;DHT22;16889;67.864;24.990;2023-12-28T23:58:10;-12.30;99.90
